createdAt,value
2019-01-29T00:01:40.203Z,98247.50
2019-01-29T00:04:42.143Z,98247.19
2019-01-29T00:07:44.219Z,98251.78
2019-01-29T00:10:46.173Z,98249.85
2019-01-29T00:13:48.340Z,98256.08
2019-01-29T00:16:50.317Z,98255.21
2019-01-29T00:19:52.197Z,98251.10
2019-01-29T00:22:54.115Z,98254.06
2019-01-29T00:25:56.020Z,98258.94
2019-01-29T00:28:57.980Z,98257.31
2019-01-29T00:32:08.735Z,98258.38
2019-01-29T00:35:11.027Z,98261.35
2019-01-29T00:38:13.043Z,98264.86
2019-01-29T00:41:14.979Z,98260.48
2019-01-29T00:44:16.839Z,98271.11
2019-01-29T00:47:18.803Z,98275.19
2019-01-29T00:50:20.792Z,98273.81
2019-01-29T00:53:22.730Z,98278.94
2019-01-29T00:56:24.710Z,98281.09
2019-01-29T00:59:27.349Z,98282.73
2019-01-29T01:02:29.486Z,98291.96
2019-01-29T01:05:31.454Z,98284.89
2019-01-29T01:08:33.456Z,98296.33
2019-01-29T01:11:35.370Z,98292.49
2019-01-29T01:14:37.387Z,98298.98
2019-01-29T01:17:39.311Z,98298.70
2019-01-29T01:20:41.264Z,98298.67
2019-01-29T01:23:43.195Z,98302.76
2019-01-29T01:26:45.228Z,98310.38
2019-01-29T01:29:47.110Z,98312.30
2019-01-29T01:32:49.011Z,98311.50
2019-01-29T01:35:51.103Z,98305.27
2019-01-29T01:38:53.101Z,98309.06
2019-01-29T01:41:55.078Z,98308.83
2019-01-29T01:44:56.983Z,98301.55
2019-01-29T01:47:58.988Z,98306.76
2019-01-29T01:51:00.883Z,98303.54
2019-01-29T01:54:02.842Z,98302.19
2019-01-29T01:57:04.797Z,98305.98
2019-01-29T02:00:12.906Z,98307.60
2019-01-29T02:03:14.862Z,98313.89
2019-01-29T02:06:16.832Z,98324.52
2019-01-29T02:09:18.901Z,98325.09
2019-01-29T02:12:20.822Z,98322.64
2019-01-29T02:15:22.948Z,98326.77
2019-01-29T02:18:24.884Z,98330.59
2019-01-29T02:21:26.778Z,98334.41
2019-01-29T02:24:28.798Z,98333.34
2019-01-29T02:27:30.702Z,98338.22
2019-01-29T02:30:32.747Z,98342.55
2019-01-29T02:33:34.663Z,98344.42
2019-01-29T02:36:36.842Z,98346.03
2019-01-29T02:39:38.778Z,98356.07
2019-01-29T02:42:40.754Z,98349.23
2019-01-29T02:45:42.672Z,98357.59
2019-01-29T02:48:44.671Z,98360.00
2019-01-29T02:51:46.581Z,98353.75
2019-01-29T02:54:48.545Z,98354.81
2019-01-29T02:57:50.527Z,98362.95
2019-01-29T03:00:52.463Z,98364.05
2019-01-29T03:03:54.462Z,98371.09
2019-01-29T03:06:56.436Z,98382.22
2019-01-29T03:09:58.429Z,98384.94
2019-01-29T03:13:00.361Z,98388.76
2019-01-29T03:16:02.316Z,98392.03
2019-01-29T03:19:04.326Z,98398.02
2019-01-29T03:22:06.360Z,98397.47
2019-01-29T03:25:10.496Z,98395.07
2019-01-29T03:28:12.432Z,98407.84
2019-01-29T03:31:14.431Z,98407.00
2019-01-29T03:34:16.362Z,98410.26
2019-01-29T03:37:18.477Z,98419.75
2019-01-29T03:40:22.919Z,98424.89
2019-01-29T03:43:24.875Z,98427.59
2019-01-29T03:46:26.870Z,98434.13
2019-01-29T03:49:29.978Z,98438.21
2019-01-29T03:52:31.931Z,98440.92
2019-01-29T03:55:33.944Z,98434.63
2019-01-29T03:58:35.953Z,98440.61
2019-01-29T04:01:39.432Z,98442.78
2019-01-29T04:04:41.387Z,98449.83
2019-01-29T04:07:43.503Z,98451.48
2019-01-29T04:10:45.453Z,98450.91
2019-01-29T04:13:47.393Z,98458.76
2019-01-29T04:16:49.277Z,98460.37
2019-01-29T04:19:51.216Z,98469.33
2019-01-29T04:22:53.123Z,98473.70
2019-01-29T04:25:55.119Z,98479.70
2019-01-29T04:28:57.003Z,98481.61
2019-01-29T04:31:59.691Z,98484.28
2019-01-29T04:35:01.747Z,98495.16
2019-01-29T04:38:03.940Z,98497.64
2019-01-29T04:41:05.858Z,98504.45
2019-01-29T04:44:07.858Z,98507.97
2019-01-29T04:47:09.794Z,98505.79
2019-01-29T04:50:19.298Z,98513.39
2019-01-29T04:53:21.273Z,98520.17
2019-01-29T04:56:23.252Z,98533.78
2019-01-29T04:59:25.197Z,98534.02
2019-01-29T05:02:28.981Z,98547.60
2019-01-29T05:05:30.902Z,98544.34
2019-01-29T05:08:32.966Z,98554.95
2019-01-29T05:11:35.063Z,98564.47
2019-01-29T05:14:37.029Z,98563.63
2019-01-29T05:17:38.943Z,98561.75
2019-01-29T05:20:40.925Z,98571.23
2019-01-29T05:23:42.843Z,98580.19
2019-01-29T05:26:44.821Z,98583.45
2019-01-29T05:29:46.758Z,98584.56
2019-01-29T05:32:48.781Z,98595.45
2019-01-29T05:35:50.786Z,98594.09
2019-01-29T05:38:52.954Z,98600.59
2019-01-29T05:41:54.966Z,98599.54
2019-01-29T05:44:56.898Z,98611.53
2019-01-29T05:47:58.855Z,98612.89
2019-01-29T05:51:00.756Z,98623.77
2019-01-29T05:54:03.368Z,98625.68
2019-01-29T05:57:05.332Z,98631.67
2019-01-29T06:00:10.883Z,98639.83
2019-01-29T06:03:13.397Z,98644.17
2019-01-29T06:06:15.288Z,98646.63
2019-01-29T06:09:17.355Z,98653.69
2019-01-29T06:12:19.268Z,98662.66
2019-01-29T06:15:23.262Z,98660.48
2019-01-29T06:18:25.228Z,98669.75
2019-01-29T06:21:27.210Z,98672.73
2019-01-29T06:24:29.185Z,98671.12
2019-01-29T06:27:32.799Z,98672.22
2019-01-29T06:30:34.837Z,98679.81
2019-01-29T06:33:36.839Z,98697.47
2019-01-29T06:36:38.838Z,98696.95
2019-01-29T06:39:40.920Z,98701.30
2019-01-29T06:42:42.848Z,98714.59
2019-01-29T06:45:44.793Z,98722.75
2019-01-29T06:48:46.732Z,98726.31
2019-01-29T06:51:48.684Z,98736.35
2019-01-29T06:54:50.829Z,98734.98
2019-01-29T06:57:55.416Z,98743.14
2019-01-29T07:00:56.584Z,98747.52
2019-01-29T07:03:59.190Z,98745.33
2019-01-29T07:07:01.101Z,98752.92
2019-01-29T07:10:06.773Z,98748.84
2019-01-29T07:13:08.712Z,98759.14
2019-01-29T07:16:12.764Z,98758.61
2019-01-29T07:19:16.843Z,98772.48
2019-01-29T07:22:18.854Z,98763.25
2019-01-29T07:25:20.798Z,98769.77
2019-01-29T07:28:23.039Z,98779.02
2019-01-29T07:31:26.154Z,98771.64
2019-01-29T07:34:28.118Z,98774.91
2019-01-29T07:37:30.136Z,98782.52
2019-01-29T07:40:32.362Z,98787.16
2019-01-29T07:43:34.404Z,98803.75
2019-01-29T07:46:36.366Z,98807.85
2019-01-29T07:49:38.371Z,98800.78
2019-01-29T07:52:40.338Z,98815.99
2019-01-29T07:55:42.238Z,98809.75
2019-01-29T07:58:45.222Z,98819.81
2019-01-29T08:01:47.171Z,98823.06
2019-01-29T08:04:49.750Z,98825.51
2019-01-29T08:07:51.690Z,98823.91
2019-01-29T08:10:53.735Z,98832.06
2019-01-29T08:13:55.850Z,98841.03
2019-01-29T08:16:57.839Z,98844.84
2019-01-29T08:19:59.758Z,98852.45
2019-01-29T08:23:01.770Z,98866.59
2019-01-29T08:26:03.676Z,98865.52
2019-01-29T08:29:05.665Z,98872.87
2019-01-29T08:32:07.598Z,98876.41
2019-01-29T08:35:14.369Z,98887.03
2019-01-29T08:38:16.397Z,98895.18
2019-01-29T08:41:20.005Z,98899.23
2019-01-29T08:44:21.968Z,98911.21
2019-01-29T08:47:23.890Z,98916.36
2019-01-29T08:50:26.351Z,98919.07
2019-01-29T08:53:28.259Z,98925.02
2019-01-29T08:56:30.253Z,98925.58
2019-01-29T08:59:38.887Z,98926.37
2019-01-29T09:02:43.749Z,98938.59
2019-01-29T09:05:45.804Z,98935.61
2019-01-29T09:08:47.767Z,98943.22
2019-01-29T09:11:49.749Z,98955.45
2019-01-29T09:14:51.741Z,98961.19
2019-01-29T09:17:53.687Z,98963.61
2019-01-29T09:20:55.662Z,98964.73
2019-01-29T09:23:57.564Z,98965.80
2019-01-29T09:26:59.558Z,98976.64
2019-01-29T09:30:01.548Z,98971.20
2019-01-29T09:33:04.276Z,98993.78
2019-01-29T09:36:06.181Z,98981.56
2019-01-29T09:39:08.875Z,98983.17
2019-01-29T09:42:11.109Z,98985.09
2019-01-29T09:45:15.384Z,98996.03
2019-01-29T09:48:18.450Z,98998.77
2019-01-29T09:51:20.373Z,98996.56
2019-01-29T09:54:22.311Z,99009.56
2019-01-29T09:57:24.287Z,99010.89
2019-01-29T10:00:32.303Z,99010.58
2019-01-29T10:03:34.240Z,99029.88
2019-01-29T10:06:36.202Z,99031.57
2019-01-29T10:09:38.462Z,99029.02
2019-01-29T10:12:40.603Z,99034.66
2019-01-29T10:15:42.591Z,99036.02
2019-01-29T10:18:44.527Z,99035.79
2019-01-29T10:21:46.504Z,99038.55
2019-01-29T10:24:49.810Z,99039.30
2019-01-29T10:27:51.839Z,99043.59
2019-01-29T10:30:53.802Z,99050.94
2019-01-29T10:33:57.143Z,99059.89
2019-01-29T10:36:59.161Z,99054.34
2019-01-29T10:40:01.079Z,99066.20
2019-01-29T10:43:03.599Z,99066.34
2019-01-29T10:46:05.611Z,99067.16
2019-01-29T10:49:07.566Z,99061.12
2019-01-29T10:52:09.593Z,99061.20
2019-01-29T10:55:11.562Z,99062.67
2019-01-29T10:58:13.512Z,99060.38
2019-01-29T11:01:15.439Z,99071.18
2019-01-29T11:04:17.458Z,99075.34
2019-01-29T11:07:19.366Z,99068.52
2019-01-29T11:10:23.504Z,99070.95
2019-01-29T11:13:25.511Z,99067.36
2019-01-29T11:16:27.485Z,99068.02
2019-01-29T11:19:29.468Z,99065.45
2019-01-29T11:22:31.481Z,99042.50
2019-01-29T11:25:33.494Z,99066.30
2019-01-29T11:28:35.405Z,99077.14
2019-01-29T11:31:37.360Z,99082.82
2019-01-29T11:34:39.268Z,99085.41
2019-01-29T11:37:41.199Z,99076.87
2019-01-29T11:40:43.150Z,99086.13
2019-01-29T11:43:45.204Z,99084.83
2019-01-29T11:46:47.157Z,99078.14
2019-01-29T11:49:49.140Z,99081.58
2019-01-29T11:52:51.058Z,99080.25
2019-01-29T11:55:53.053Z,99074.77
2019-01-29T11:58:55.039Z,99088.40
2019-01-29T12:01:57.433Z,99082.44
2019-01-29T12:04:59.371Z,99088.45
2019-01-29T12:08:01.327Z,99084.42
2019-01-29T12:11:03.791Z,99091.57
2019-01-29T12:14:05.768Z,99097.27
2019-01-29T12:17:07.718Z,99099.16
2019-01-29T12:20:13.005Z,99095.41
2019-01-29T12:23:15.919Z,99093.00
2019-01-29T12:26:17.917Z,99103.29
2019-01-29T12:29:19.889Z,99096.01
2019-01-29T12:32:22.891Z,99087.30
2019-01-29T12:35:24.803Z,99097.43
2019-01-29T12:38:27.264Z,99091.69
2019-01-29T12:41:29.247Z,99090.56
2019-01-29T12:44:31.340Z,99105.17
2019-01-29T12:47:33.348Z,99100.22
2019-01-29T12:50:36.039Z,99104.28
2019-01-29T12:53:37.950Z,99112.12
2019-01-29T12:56:40.989Z,99112.09
2019-01-29T12:59:42.919Z,99096.80
2019-01-29T13:02:44.834Z,99104.39
2019-01-29T13:05:46.757Z,99100.04
2019-01-29T13:08:48.736Z,99100.53
2019-01-29T13:11:50.842Z,99084.80
2019-01-29T13:14:52.875Z,99079.04
2019-01-29T13:17:55.888Z,99068.38
2019-01-29T13:20:57.868Z,99082.74
2019-01-29T13:23:59.795Z,99073.53
2019-01-29T13:27:01.833Z,99087.34
2019-01-29T13:30:16.488Z,99078.92
2019-01-29T13:33:18.680Z,99100.15
2019-01-29T13:36:20.658Z,99108.85
2019-01-29T13:39:23.764Z,99113.48
2019-01-29T13:42:25.653Z,99119.98
2019-01-29T13:45:27.915Z,99125.20
2019-01-29T13:48:31.199Z,99126.11
2019-01-29T13:51:34.234Z,99122.69
2019-01-29T13:54:36.259Z,99121.06
2019-01-29T13:57:38.242Z,99124.84
2019-01-29T14:00:40.148Z,99128.36
2019-01-29T14:03:42.167Z,99130.56
2019-01-29T14:06:44.109Z,99130.83
2019-01-29T14:09:46.236Z,99136.05
2019-01-29T14:12:48.326Z,99127.55
2019-01-29T14:15:52.243Z,99126.98
2019-01-29T14:18:54.207Z,99131.34
2019-01-29T14:21:56.930Z,99131.13
2019-01-29T14:24:58.834Z,99123.30
2019-01-29T14:28:00.863Z,99133.95
2019-01-29T14:31:03.165Z,99142.44
2019-01-29T14:34:05.127Z,99151.17
2019-01-29T14:37:07.072Z,99156.91
2019-01-29T14:40:15.582Z,99159.09
2019-01-29T14:43:33.103Z,99166.73
2019-01-29T14:46:35.203Z,99167.80
2019-01-29T14:49:37.159Z,99172.66
2019-01-29T14:52:39.151Z,99172.69
2019-01-29T14:55:41.042Z,99175.12
2019-01-29T14:58:42.988Z,99175.97
2019-01-29T15:01:45.033Z,99177.31
2019-01-29T15:04:47.022Z,99171.34
2019-01-29T15:07:49.065Z,99169.69
2019-01-29T15:10:51.102Z,99174.61
2019-01-29T15:13:53.061Z,99180.05
2019-01-29T15:16:57.103Z,99183.30
2019-01-29T15:19:59.065Z,99181.36
2019-01-29T15:23:01.196Z,99182.11
2019-01-29T15:26:03.154Z,99183.47
2019-01-29T15:29:05.186Z,99180.41
2019-01-29T15:32:07.114Z,99176.86
2019-01-29T15:35:09.498Z,99177.91
2019-01-29T15:38:11.430Z,99179.67
2019-01-29T15:41:13.423Z,99182.77
2019-01-29T15:44:15.361Z,99180.09
2019-01-29T15:47:17.473Z,99184.23
2019-01-29T15:50:27.187Z,99181.84
2019-01-29T15:53:29.185Z,99181.95
2019-01-29T15:56:31.132Z,99188.27
2019-01-29T15:59:33.107Z,99190.03
2019-01-29T16:02:35.015Z,99194.73
2019-01-29T16:05:41.591Z,99205.39
2019-01-29T16:08:43.595Z,99211.70
2019-01-29T16:11:45.610Z,99213.07
2019-01-29T16:14:47.845Z,99210.77
2019-01-29T16:17:50.004Z,99213.89
2019-01-29T16:20:51.952Z,99212.71
2019-01-29T16:23:53.886Z,99223.19
2019-01-29T16:26:55.912Z,99217.14
2019-01-29T16:29:57.927Z,99226.78
2019-01-29T16:32:59.877Z,99225.83
2019-01-29T16:36:03.197Z,99228.70
2019-01-29T16:39:06.833Z,99233.97
2019-01-29T16:42:08.833Z,99228.72
2019-01-29T16:45:14.389Z,99230.15
2019-01-29T16:48:16.698Z,99234.31
2019-01-29T16:51:18.707Z,99229.44
2019-01-29T16:54:22.046Z,99230.73
2019-01-29T16:57:31.545Z,99234.47
2019-01-29T17:00:34.465Z,99229.98
2019-01-29T17:03:36.406Z,99232.30
2019-01-29T17:06:39.376Z,99225.80
2019-01-29T17:09:43.169Z,99231.78
2019-01-29T17:12:45.233Z,99232.91
2019-01-29T17:15:47.136Z,99237.23
2019-01-29T17:18:50.993Z,99237.33
2019-01-29T17:21:53.006Z,99233.73
2019-01-29T17:24:54.978Z,99236.25
2019-01-29T17:27:56.913Z,99236.61
2019-01-29T17:30:58.903Z,99224.77
2019-01-29T17:34:00.868Z,99233.49
2019-01-29T17:37:02.884Z,99234.80
2019-01-29T17:40:10.173Z,99236.20
2019-01-29T17:43:12.146Z,99235.66
2019-01-29T17:46:14.100Z,99236.74
2019-01-29T17:49:16.224Z,99237.60
2019-01-29T17:52:18.173Z,99232.41
2019-01-29T17:55:20.641Z,99238.70
2019-01-29T17:58:22.582Z,99246.64
2019-01-29T18:01:24.841Z,99243.93
2019-01-29T18:04:26.815Z,99245.37
2019-01-29T18:07:32.329Z,99238.64
2019-01-29T18:10:34.298Z,99239.80
2019-01-29T18:13:37.034Z,99238.53
2019-01-29T18:16:41.042Z,99245.36
2019-01-29T18:19:46.500Z,99243.48
2019-01-29T18:22:50.258Z,99246.86
2019-01-29T18:25:53.686Z,99252.38
2019-01-29T18:28:57.564Z,99253.28
2019-01-29T18:31:59.792Z,99253.32
2019-01-29T18:35:01.856Z,99243.56
2019-01-29T18:38:04.972Z,99248.52
2019-01-29T18:41:08.013Z,99243.09
2019-01-29T18:44:14.159Z,99243.22
2019-01-29T18:47:17.368Z,99246.21
2019-01-29T18:50:23.240Z,99242.45
2019-01-29T18:53:28.772Z,99241.29
2019-01-29T18:56:30.681Z,99246.36
2019-01-29T18:59:32.642Z,99251.42
2019-01-29T19:02:34.614Z,99247.87
2019-01-29T19:05:39.247Z,99248.91
2019-01-29T19:08:41.208Z,99243.80
2019-01-29T19:11:44.411Z,99231.28
2019-01-29T19:14:47.013Z,99233.69
2019-01-29T19:17:50.860Z,99230.11
2019-01-29T19:20:55.077Z,99235.30
2019-01-29T19:23:57.095Z,99232.27
2019-01-29T19:26:59.060Z,99227.84
2019-01-29T19:30:01.346Z,99230.42
2019-01-29T19:33:03.253Z,99231.14
2019-01-29T19:36:07.022Z,99226.92
2019-01-29T19:39:08.991Z,99231.30
2019-01-29T19:42:10.952Z,99229.09
2019-01-29T19:45:21.654Z,99231.42
2019-01-29T19:48:23.656Z,99236.80
2019-01-29T19:51:29.438Z,99238.96
2019-01-29T19:54:31.434Z,99238.37
2019-01-29T19:57:35.152Z,99230.95
2019-01-29T20:00:40.089Z,99238.20
2019-01-29T20:03:42.502Z,99226.67
2019-01-29T20:06:45.679Z,99235.88
2019-01-29T20:09:48.986Z,99234.95
2019-01-29T20:12:52.919Z,99233.17
2019-01-29T20:15:56.492Z,99238.80
2019-01-29T20:19:02.653Z,99235.27
2019-01-29T20:22:06.535Z,99233.39
2019-01-29T20:25:12.543Z,99233.95
2019-01-29T20:28:16.351Z,99223.83
2019-01-29T20:31:21.523Z,99226.35
2019-01-29T20:34:23.499Z,99230.24
2019-01-29T20:37:27.638Z,99226.49
2019-01-29T20:40:36.943Z,99219.66
2019-01-29T20:43:40.764Z,99218.00
2019-01-29T20:46:49.532Z,99216.77
2019-01-29T20:49:51.570Z,99209.77
2019-01-29T20:52:53.680Z,99214.59
2019-01-29T20:55:56.213Z,99214.25
2019-01-29T20:59:07.533Z,99215.59
2019-01-29T21:02:11.409Z,99225.48
2019-01-29T21:05:15.140Z,99222.27
2019-01-29T21:08:17.289Z,99214.59
2019-01-29T21:11:21.090Z,99219.84
2019-01-29T21:14:28.204Z,99216.65
2019-01-29T21:17:30.166Z,99215.20
2019-01-29T21:20:32.160Z,99214.34
2019-01-29T21:23:34.207Z,99209.05
2019-01-29T21:26:37.347Z,99217.05
2019-01-29T21:29:39.371Z,99218.08
2019-01-29T21:32:41.318Z,99219.59
2019-01-29T21:35:43.281Z,99212.84
2019-01-29T21:38:46.567Z,99218.16
2019-01-29T21:41:48.479Z,99215.95
2019-01-29T21:44:50.493Z,99216.71
2019-01-29T21:47:57.515Z,99216.13
2019-01-29T21:51:00.127Z,99212.70
2019-01-29T21:54:03.570Z,99213.12
2019-01-29T21:57:08.508Z,99209.75
2019-01-29T22:00:26.333Z,99208.56
2019-01-29T22:03:28.313Z,99208.37
2019-01-29T22:06:30.290Z,99202.63
2019-01-29T22:09:32.202Z,99200.87
2019-01-29T22:12:34.154Z,99195.35
2019-01-29T22:15:36.057Z,99196.78
2019-01-29T22:18:38.079Z,99189.73
2019-01-29T22:21:40.043Z,99181.75
2019-01-29T22:24:42.378Z,99193.37
2019-01-29T22:27:44.309Z,99193.58
2019-01-29T22:30:46.317Z,99191.11
2019-01-29T22:33:48.285Z,99196.23
2019-01-29T22:36:50.287Z,99179.63
2019-01-29T22:39:52.258Z,99184.84
2019-01-29T22:42:54.845Z,99182.95
2019-01-29T22:45:56.756Z,99176.61
2019-01-29T22:48:58.740Z,99182.72
2019-01-29T22:52:00.676Z,99184.46
2019-01-29T22:55:05.866Z,99175.76
2019-01-29T22:58:07.958Z,99175.63
2019-01-29T23:01:16.629Z,99170.86
2019-01-29T23:04:18.621Z,99174.02
2019-01-29T23:07:20.541Z,99175.41
2019-01-29T23:10:22.590Z,99172.63
2019-01-29T23:13:24.507Z,99165.28
2019-01-29T23:16:26.461Z,99169.55
2019-01-29T23:19:28.377Z,99172.24
2019-01-29T23:22:31.458Z,99160.17
2019-01-29T23:25:33.433Z,99158.08
2019-01-29T23:28:35.402Z,99160.03
2019-01-29T23:31:37.347Z,99150.20
2019-01-29T23:34:39.396Z,99150.34
2019-01-29T23:37:43.240Z,99142.42
2019-01-29T23:40:45.230Z,99141.83
2019-01-29T23:43:47.239Z,99135.97
2019-01-29T23:46:50.267Z,99134.41
2019-01-29T23:49:52.216Z,99137.31
2019-01-29T23:52:54.158Z,99136.43
2019-01-29T23:55:56.262Z,99133.69
2019-01-29T23:58:58.178Z,99131.67
